Time;durP1;ratioP1;P1;durP2;ratioP2;P2;SDS_P1;SDS_P2;PMS_P1;PMS_P2;Temp;Humidity;BMP_temperature;BMP_pressure;BME280_temperature;BME280_humidity;BME280_pressure;Samples;Min_cycle;Max_cycle;Signal;HPM_P1;HPM_P2
2023/06/01 00:02:02;;;;;;;2.42;1.70;;;;;;;;;;5083568;28;20321;-52
2023/06/01 00:04:29;;;;;;;2.72;2.00;;;;;;;;;;5080384;28;20277;-51
2023/06/01 00:06:56;;;;;;;3.65;1.92;;;;;;;;;;5077152;28;20634;-53
2023/06/01 00:09:22;;;;;;;2.60;2.08;;;;;;;;;;5085837;28;20761;-53
2023/06/01 00:11:49;;;;;;;2.55;1.73;;;;;;;;;;5083854;28;20241;-53
2023/06/01 00:14:17;;;;;;;3.65;1.85;;;;;;;;;;5088946;28;20700;-53
2023/06/01 00:16:44;;;;;;;2.42;1.73;;;;;;;;;;5081872;28;20317;-54
2023/06/01 00:19:11;;;;;;;2.97;1.73;;;;;;;;;;5084659;28;20317;-54
2023/06/01 00:21:38;;;;;;;2.40;1.73;;;;;;;;;;5080567;28;20231;-52
2023/06/01 00:24:04;;;;;;;2.80;2.33;;;;;;;;;;5084756;28;20234;-52
2023/06/01 00:26:32;;;;;;;2.50;1.73;;;;;;;;;;5081709;28;20708;-52
2023/06/01 00:28:58;;;;;;;2.33;1.80;;;;;;;;;;5087674;28;20269;-53
2023/06/01 00:31:26;;;;;;;2.35;2.13;;;;;;;;;;5074999;28;20239;-51
2023/06/01 00:33:53;;;;;;;2.35;1.58;;;;;;;;;;5084203;28;20281;-53
2023/06/01 00:36:20;;;;;;;2.58;2.00;;;;;;;;;;5081631;28;20223;-51
2023/06/01 00:38:46;;;;;;;5.18;2.25;;;;;;;;;;5075668;28;20231;-52
2023/06/01 00:41:13;;;;;;;4.25;2.17;;;;;;;;;;5081866;28;20241;-52
2023/06/01 00:43:40;;;;;;;2.90;2.10;;;;;;;;;;5087035;28;20288;-53
2023/06/01 00:46:06;;;;;;;2.78;1.80;;;;;;;;;;5080219;28;20260;-52
2023/06/01 00:48:35;;;;;;;1.95;1.60;;;;;;;;;;5084588;28;20246;-53
2023/06/01 00:51:02;;;;;;;1.83;1.73;;;;;;;;;;5083368;28;20448;-59
2023/06/01 00:53:29;;;;;;;2.15;1.73;;;;;;;;;;5081303;28;20233;-55
2023/06/01 00:55:55;;;;;;;3.38;2.30;;;;;;;;;;5085872;28;20694;-52
2023/06/01 00:58:22;;;;;;;2.42;1.70;;;;;;;;;;5086019;28;20245;-52
2023/06/01 01:00:49;;;;;;;4.55;1.98;;;;;;;;;;5084389;28;20279;-52
2023/06/01 01:03:16;;;;;;;1.63;1.48;;;;;;;;;;5085893;27;20234;-53
2023/06/01 01:05:44;;;;;;;5.13;1.88;;;;;;;;;;5084069;28;20234;-52
2023/06/01 01:08:14;;;;;;;2.58;1.85;;;;;;;;;;5085996;28;20235;-52
2023/06/01 01:10:42;;;;;;;2.35;1.33;;;;;;;;;;5082475;28;20246;-51
2023/06/01 01:13:11;;;;;;;4.60;2.53;;;;;;;;;;5083539;28;20238;-52
2023/06/01 01:15:42;;;;;;;2.60;1.63;;;;;;;;;;5077402;28;20288;-52
2023/06/01 01:18:13;;;;;;;7.10;2.40;;;;;;;;;;5085108;28;20921;-53
2023/06/01 01:20:42;;;;;;;3.15;1.98;;;;;;;;;;5078070;28;20257;-53
2023/06/01 01:23:18;;;;;;;7.85;2.10;;;;;;;;;;5075858;28;20231;-53
2023/06/01 01:26:01;;;;;;;4.32;2.00;;;;;;;;;;5083824;28;20231;-50
2023/06/01 01:28:34;;;;;;;4.13;2.30;;;;;;;;;;5066679;28;20226;-52
2023/06/01 01:31:02;;;;;;;2.85;1.65;;;;;;;;;;5074142;28;20281;-51
2023/06/01 01:33:30;;;;;;;4.47;2.03;;;;;;;;;;5084516;28;20866;-51
2023/06/01 01:35:57;;;;;;;3.25;2.45;;;;;;;;;;5074513;28;20226;-53
2023/06/01 01:38:24;;;;;;;3.10;2.25;;;;;;;;;;5083566;28;20231;-52
2023/06/01 01:40:52;;;;;;;1.80;1.70;;;;;;;;;;5083626;28;20256;-53
2023/06/01 01:43:19;;;;;;;1.92;1.77;;;;;;;;;;5065849;28;20328;-52
2023/06/01 01:45:51;;;;;;;3.10;2.00;;;;;;;;;;5075523;28;20332;-53
2023/06/01 01:48:19;;;;;;;3.00;2.28;;;;;;;;;;5076787;28;20227;-52
2023/06/01 01:50:50;;;;;;;3.17;2.22;;;;;;;;;;5084114;28;20250;-54
2023/06/01 01:53:17;;;;;;;4.35;2.05;;;;;;;;;;5071612;28;20299;-52
2023/06/01 01:55:45;;;;;;;2.83;1.83;;;;;;;;;;5083966;28;20246;-51
2023/06/01 01:58:11;;;;;;;3.47;2.20;;;;;;;;;;5079434;27;20735;-54
2023/06/01 02:00:38;;;;;;;4.53;2.38;;;;;;;;;;5082442;28;20304;-53
2023/06/01 02:03:13;;;;;;;4.10;1.85;;;;;;;;;;5077504;28;20230;-52
2023/06/01 02:05:46;;;;;;;2.45;1.85;;;;;;;;;;5071066;28;20241;-52
2023/06/01 02:08:12;;;;;;;2.13;2.00;;;;;;;;;;5078588;28;20238;-51
2023/06/01 02:10:40;;;;;;;2.45;2.25;;;;;;;;;;5084913;28;20227;-53
2023/06/01 02:13:07;;;;;;;3.63;2.20;;;;;;;;;;5087485;28;20234;-51
2023/06/01 02:15:34;;;;;;;3.50;2.90;;;;;;;;;;5089819;28;20234;-52
2023/06/01 02:18:02;;;;;;;5.78;2.78;;;;;;;;;;5082411;28;20712;-52
2023/06/01 02:20:30;;;;;;;2.90;2.28;;;;;;;;;;5072766;28;20231;-51
2023/06/01 02:22:57;;;;;;;4.32;2.38;;;;;;;;;;5081289;28;20303;-54
2023/06/01 02:25:23;;;;;;;7.45;3.25;;;;;;;;;;5085942;28;20246;-52
2023/06/01 02:27:50;;;;;;;4.78;2.53;;;;;;;;;;5084869;28;20261;-51
2023/06/01 02:30:17;;;;;;;3.47;2.80;;;;;;;;;;5084219;28;20445;-52
2023/06/01 02:32:45;;;;;;;2.53;2.30;;;;;;;;;;5087892;28;20245;-53
2023/06/01 02:35:11;;;;;;;5.68;3.25;;;;;;;;;;5080716;28;20262;-50
2023/06/01 02:37:39;;;;;;;3.10;2.67;;;;;;;;;;5082607;28;20234;-52
2023/06/01 02:40:06;;;;;;;4.85;3.03;;;;;;;;;;5084066;28;20238;-53
2023/06/01 02:42:36;;;;;;;9.00;3.45;;;;;;;;;;5068597;28;20380;-51
2023/06/01 02:45:04;;;;;;;4.35;2.65;;;;;;;;;;5080656;28;20233;-52
2023/06/01 02:47:30;;;;;;;5.32;3.42;;;;;;;;;;5082261;28;20253;-53
2023/06/01 02:49:57;;;;;;;4.55;3.10;;;;;;;;;;5082100;28;20261;-53
2023/06/01 02:52:24;;;;;;;4.78;3.50;;;;;;;;;;5081418;28;21148;-52
2023/06/01 02:54:52;;;;;;;3.95;3.10;;;;;;;;;;5084344;28;20235;-52
2023/06/01 02:57:19;;;;;;;4.55;2.92;;;;;;;;;;5065376;28;20231;-52
2023/06/01 02:59:45;;;;;;;5.78;3.67;;;;;;;;;;5080604;28;20295;-53
2023/06/01 03:02:12;;;;;;;7.80;3.15;;;;;;;;;;5080055;28;20231;-52
2023/06/01 03:04:43;;;;;;;8.82;3.30;;;;;;;;;;5078395;28;20300;-53
2023/06/01 03:07:10;;;;;;;4.63;3.40;;;;;;;;;;5081995;28;20666;-53
2023/06/01 03:09:36;;;;;;;4.97;3.88;;;;;;;;;;5075933;28;20237;-52
2023/06/01 03:12:06;;;;;;;4.20;3.53;;;;;;;;;;5081996;28;20658;-51
2023/06/01 03:14:32;;;;;;;5.50;3.35;;;;;;;;;;5083440;28;20607;-54
2023/06/01 03:16:59;;;;;;;5.40;3.50;;;;;;;;;;5081580;28;20234;-52
2023/06/01 03:19:26;;;;;;;6.70;3.83;;;;;;;;;;5066051;28;20283;-53
2023/06/01 03:21:52;;;;;;;8.95;4.00;;;;;;;;;;5089644;28;20238;-52
2023/06/01 03:24:19;;;;;;;7.07;4.13;;;;;;;;;;5089597;28;20237;-53
2023/06/01 03:26:46;;;;;;;5.10;3.58;;;;;;;;;;5089973;28;20238;-52
2023/06/01 03:29:16;;;;;;;7.32;3.78;;;;;;;;;;5082378;28;20277;-52
2023/06/01 03:31:43;;;;;;;7.75;4.70;;;;;;;;;;5082908;28;20272;-54
2023/06/01 03:34:09;;;;;;;5.65;3.97;;;;;;;;;;5074455;28;20651;-56
2023/06/01 03:36:37;;;;;;;7.28;5.10;;;;;;;;;;5078702;28;20239;-52
2023/06/01 03:39:07;;;;;;;7.20;4.55;;;;;;;;;;5084065;28;20284;-51
2023/06/01 03:41:34;;;;;;;5.22;4.32;;;;;;;;;;5074638;28;20242;-52
2023/06/01 03:44:01;;;;;;;8.52;5.32;;;;;;;;;;5079847;28;20230;-51
2023/06/01 03:46:29;;;;;;;11.27;5.03;;;;;;;;;;5080755;28;20705;-51
2023/06/01 03:48:55;;;;;;;6.25;4.85;;;;;;;;;;5082999;28;20231;-53
2023/06/01 03:51:22;;;;;;;5.72;3.75;;;;;;;;;;5079527;28;20230;-52
2023/06/01 03:53:49;;;;;;;10.15;4.95;;;;;;;;;;5078768;28;20250;-54
2023/06/01 03:56:16;;;;;;;6.72;4.53;;;;;;;;;;5083936;28;20739;-52
2023/06/01 03:58:42;;;;;;;5.95;5.07;;;;;;;;;;5076934;28;20230;-52
2023/06/01 04:01:10;;;;;;;9.02;5.78;;;;;;;;;;5082028;28;20778;-52
2023/06/01 04:03:38;;;;;;;5.35;4.00;;;;;;;;;;5070528;28;20596;-52
2023/06/01 04:06:11;;;;;;;10.32;5.03;;;;;;;;;;5078357;28;20237;-55
2023/06/01 04:08:42;;;;;;;10.18;5.78;;;;;;;;;;5076295;28;20240;-51
2023/06/01 04:11:08;;;;;;;8.60;5.32;;;;;;;;;;5074637;28;20254;-52
2023/06/01 04:13:35;;;;;;;6.65;4.90;;;;;;;;;;5076735;28;20269;-57
2023/06/01 04:16:02;;;;;;;9.10;5.55;;;;;;;;;;5079235;28;20239;-52
2023/06/01 04:18:28;;;;;;;8.70;5.85;;;;;;;;;;5084858;28;20234;-50
2023/06/01 04:20:56;;;;;;;7.18;5.47;;;;;;;;;;5076541;28;20238;-53
2023/06/01 04:23:23;;;;;;;10.65;7.45;;;;;;;;;;5087697;28;20284;-53
2023/06/01 04:25:50;;;;;;;12.40;7.57;;;;;;;;;;5080051;28;20231;-52
2023/06/01 04:28:17;;;;;;;13.73;7.43;;;;;;;;;;5082481;28;20935;-54
2023/06/01 04:30:44;;;;;;;8.30;6.57;;;;;;;;;;5080174;28;20548;-52
2023/06/01 04:33:10;;;;;;;12.75;7.18;;;;;;;;;;5081493;28;20235;-52
2023/06/01 04:35:37;;;;;;;10.05;6.38;;;;;;;;;;5070812;28;20292;-54
2023/06/01 04:38:05;;;;;;;14.13;7.35;;;;;;;;;;5080707;28;20687;-52
2023/06/01 04:40:33;;;;;;;10.90;7.50;;;;;;;;;;5087770;28;20652;-57
2023/06/01 04:43:02;;;;;;;11.05;7.88;;;;;;;;;;5085671;28;20268;-54
2023/06/01 04:45:30;;;;;;;11.77;6.60;;;;;;;;;;5080632;28;20313;-51
2023/06/01 04:47:57;;;;;;;12.85;8.18;;;;;;;;;;5078089;27;20236;-53
2023/06/01 04:50:24;;;;;;;11.68;7.68;;;;;;;;;;5088032;28;20313;-60
2023/06/01 04:52:51;;;;;;;9.75;7.30;;;;;;;;;;5089903;28;20317;-55
2023/06/01 04:55:20;;;;;;;8.00;6.72;;;;;;;;;;5073766;28;20611;-57
2023/06/01 04:57:46;;;;;;;12.93;8.48;;;;;;;;;;5082747;28;20235;-53
2023/06/01 05:00:18;;;;;;;12.05;7.50;;;;;;;;;;5088258;28;20736;-54
2023/06/01 05:02:47;;;;;;;10.52;6.80;;;;;;;;;;5086221;28;20483;-52
2023/06/01 05:05:14;;;;;;;8.15;6.00;;;;;;;;;;5087513;28;20784;-52
2023/06/01 05:07:41;;;;;;;7.82;6.97;;;;;;;;;;5080228;28;20337;-52
2023/06/01 05:10:09;;;;;;;12.93;6.85;;;;;;;;;;5087215;28;20920;-59
2023/06/01 05:12:37;;;;;;;7.60;6.60;;;;;;;;;;5074190;28;20650;-53
2023/06/01 05:15:05;;;;;;;10.45;6.70;;;;;;;;;;5083469;28;20230;-51
2023/06/01 05:17:32;;;;;;;11.10;6.18;;;;;;;;;;5078950;28;20266;-52
2023/06/01 05:19:58;;;;;;;10.70;6.78;;;;;;;;;;5081422;28;20317;-52
2023/06/01 05:22:25;;;;;;;9.43;6.45;;;;;;;;;;5085671;28;20287;-52
2023/06/01 05:24:52;;;;;;;8.02;6.28;;;;;;;;;;5085527;28;20246;-51
2023/06/01 05:27:18;;;;;;;11.95;6.57;;;;;;;;;;5081622;28;20227;-52
2023/06/01 05:29:48;;;;;;;6.55;5.53;;;;;;;;;;5084768;28;20245;-54
2023/06/01 05:32:14;;;;;;;12.52;6.07;;;;;;;;;;5082197;28;20258;-53
2023/06/01 05:34:41;;;;;;;12.93;6.72;;;;;;;;;;5076907;28;20238;-51
2023/06/01 05:37:08;;;;;;;8.95;5.85;;;;;;;;;;5076104;28;20760;-51
2023/06/01 05:39:34;;;;;;;10.63;6.38;;;;;;;;;;5082940;28;20231;-52
2023/06/01 05:42:01;;;;;;;6.22;5.25;;;;;;;;;;5081439;28;20226;-54
2023/06/01 05:44:28;;;;;;;10.50;5.50;;;;;;;;;;5083107;28;20233;-53
2023/06/01 05:46:56;;;;;;;9.23;6.00;;;;;;;;;;5083539;28;20237;-51
2023/06/01 05:49:23;;;;;;;12.38;5.93;;;;;;;;;;5077244;28;20238;-52
2023/06/01 05:51:49;;;;;;;10.07;5.60;;;;;;;;;;5085502;28;20265;-53
2023/06/01 05:54:16;;;;;;;8.82;5.40;;;;;;;;;;5086247;28;20310;-53
2023/06/01 05:56:42;;;;;;;8.15;5.13;;;;;;;;;;5086528;28;20239;-52
2023/06/01 05:59:09;;;;;;;5.40;4.90;;;;;;;;;;5083070;28;20222;-52
2023/06/01 06:01:36;;;;;;;6.70;4.85;;;;;;;;;;5078916;28;21041;-53
2023/06/01 06:04:04;;;;;;;8.05;5.40;;;;;;;;;;5083253;28;20245;-52
2023/06/01 06:06:31;;;;;;;9.30;4.93;;;;;;;;;;5081813;28;20622;-52
2023/06/01 06:08:58;;;;;;;5.13;4.30;;;;;;;;;;5079611;27;20247;-52
2023/06/01 06:11:25;;;;;;;5.78;4.70;;;;;;;;;;5080894;28;20719;-53
2023/06/01 06:13:52;;;;;;;7.90;4.78;;;;;;;;;;5082777;28;20722;-51
2023/06/01 06:16:19;;;;;;;6.50;4.15;;;;;;;;;;5084187;28;20242;-51
2023/06/01 06:18:45;;;;;;;10.00;5.07;;;;;;;;;;5083018;28;20612;-52
2023/06/01 06:21:13;;;;;;;8.23;5.05;;;;;;;;;;5082257;28;20238;-53
2023/06/01 06:23:41;;;;;;;8.52;4.63;;;;;;;;;;5083212;28;20619;-52
2023/06/01 06:26:07;;;;;;;5.55;4.03;;;;;;;;;;5081794;28;20968;-52
2023/06/01 06:28:34;;;;;;;9.52;4.45;;;;;;;;;;5083143;28;20716;-52
2023/06/01 06:31:01;;;;;;;10.32;4.35;;;;;;;;;;5081825;28;20272;-52
2023/06/01 06:33:28;;;;;;;9.93;5.18;;;;;;;;;;5075872;28;20664;-52
2023/06/01 06:35:55;;;;;;;6.18;4.70;;;;;;;;;;5079625;28;20250;-53
2023/06/01 06:38:23;;;;;;;5.53;4.38;;;;;;;;;;5079917;28;20218;-52
2023/06/01 06:40:51;;;;;;;5.55;4.63;;;;;;;;;;5080435;28;21043;-51
2023/06/01 06:43:18;;;;;;;9.00;4.45;;;;;;;;;;5078683;28;20230;-52
2023/06/01 06:45:44;;;;;;;8.43;5.07;;;;;;;;;;5081275;28;20239;-53
2023/06/01 06:48:11;;;;;;;9.40;4.75;;;;;;;;;;5083750;28;20654;-51
2023/06/01 06:50:38;;;;;;;7.40;4.95;;;;;;;;;;5075825;28;20257;-52
2023/06/01 06:53:05;;;;;;;12.73;5.05;;;;;;;;;;5082547;28;20272;-51
2023/06/01 06:55:33;;;;;;;6.60;5.03;;;;;;;;;;5080693;28;20234;-51
2023/06/01 06:57:59;;;;;;;6.43;4.80;;;;;;;;;;5082930;28;20300;-52
2023/06/01 07:00:26;;;;;;;6.70;5.55;;;;;;;;;;5081557;28;20234;-52
2023/06/01 07:02:53;;;;;;;6.97;5.05;;;;;;;;;;5086181;28;20253;-53
2023/06/01 07:05:20;;;;;;;8.82;5.00;;;;;;;;;;5081932;28;20230;-54
2023/06/01 07:07:47;;;;;;;8.85;4.80;;;;;;;;;;5082690;28;20222;-52
2023/06/01 07:10:14;;;;;;;7.63;4.47;;;;;;;;;;5081662;28;20248;-51
2023/06/01 07:12:41;;;;;;;14.50;5.80;;;;;;;;;;5094396;28;20250;-54
2023/06/01 07:15:09;;;;;;;5.10;4.60;;;;;;;;;;5083236;28;20226;-51
2023/06/01 07:17:35;;;;;;;7.05;4.90;;;;;;;;;;5084220;28;20268;-52
2023/06/01 07:20:04;;;;;;;7.88;4.88;;;;;;;;;;5080106;28;20264;-53
2023/06/01 07:22:31;;;;;;;6.72;4.63;;;;;;;;;;5084250;28;20804;-51
2023/06/01 07:24:57;;;;;;;8.18;5.97;;;;;;;;;;5085762;28;20223;-53
2023/06/01 07:27:26;;;;;;;5.43;4.18;;;;;;;;;;5082432;28;20250;-54
2023/06/01 07:29:55;;;;;;;9.68;5.57;;;;;;;;;;5083540;28;20253;-51
2023/06/01 07:32:22;;;;;;;8.75;5.22;;;;;;;;;;5076436;28;20346;-52
2023/06/01 07:34:49;;;;;;;8.23;5.65;;;;;;;;;;5083254;28;20687;-51
2023/06/01 07:37:15;;;;;;;11.07;5.10;;;;;;;;;;5071312;28;20725;-51
2023/06/01 07:39:42;;;;;;;7.25;4.25;;;;;;;;;;5075538;28;20245;-53
2023/06/01 07:42:09;;;;;;;10.68;5.60;;;;;;;;;;5078275;28;20249;-51
2023/06/01 07:44:35;;;;;;;8.70;4.85;;;;;;;;;;5078918;28;20239;-52
2023/06/01 07:47:04;;;;;;;8.20;5.85;;;;;;;;;;5075344;28;20258;-52
2023/06/01 07:49:30;;;;;;;7.57;4.63;;;;;;;;;;5078219;28;20230;-51
2023/06/01 07:51:58;;;;;;;4.90;3.72;;;;;;;;;;5084764;28;20245;-52
2023/06/01 07:54:25;;;;;;;10.05;5.07;;;;;;;;;;5082012;28;20302;-52
2023/06/01 07:56:51;;;;;;;5.18;4.53;;;;;;;;;;5075426;28;20770;-52
2023/06/01 07:59:18;;;;;;;4.88;3.97;;;;;;;;;;5081358;28;20230;-53
2023/06/01 08:01:44;;;;;;;7.55;4.65;;;;;;;;;;5073129;28;20296;-51
2023/06/01 08:04:12;;;;;;;8.95;5.10;;;;;;;;;;5074252;28;20242;-52
2023/06/01 08:06:41;;;;;;;7.82;5.00;;;;;;;;;;5080451;28;20333;-51
2023/06/01 08:09:08;;;;;;;6.50;4.38;;;;;;;;;;5079506;28;20300;-53
2023/06/01 08:11:35;;;;;;;6.85;5.18;;;;;;;;;;5077651;28;20234;-50
2023/06/01 08:14:02;;;;;;;5.53;4.60;;;;;;;;;;5075266;28;20234;-53
2023/06/01 08:16:29;;;;;;;6.25;5.18;;;;;;;;;;5079382;28;20611;-55
2023/06/01 08:18:56;;;;;;;9.10;4.78;;;;;;;;;;5087029;28;20256;-54
2023/06/01 08:21:25;;;;;;;7.40;4.43;;;;;;;;;;5070646;28;20313;-55
2023/06/01 08:23:54;;;;;;;6.15;4.57;;;;;;;;;;5075965;28;20244;-51
2023/06/01 08:26:21;;;;;;;9.35;5.57;;;;;;;;;;5069050;28;20234;-52
2023/06/01 08:28:51;;;;;;;8.30;4.63;;;;;;;;;;5082337;28;20254;-53
2023/06/01 08:31:18;;;;;;;10.48;5.75;;;;;;;;;;5071942;28;20303;-51
2023/06/01 08:33:44;;;;;;;9.25;5.30;;;;;;;;;;5082532;28;20238;-51
2023/06/01 08:36:11;;;;;;;6.43;4.13;;;;;;;;;;5084802;28;20237;-51
2023/06/01 08:38:39;;;;;;;7.20;4.65;;;;;;;;;;5077082;28;20235;-52
2023/06/01 08:41:12;;;;;;;7.68;5.13;;;;;;;;;;5077448;28;20230;-52
2023/06/01 08:43:39;;;;;;;7.07;4.57;;;;;;;;;;5076094;28;20241;-52
2023/06/01 08:46:06;;;;;;;6.97;4.18;;;;;;;;;;5085387;28;20699;-52
2023/06/01 08:48:33;;;;;;;7.30;4.22;;;;;;;;;;5084672;28;20261;-51
2023/06/01 08:50:59;;;;;;;6.13;4.35;;;;;;;;;;5080637;28;20266;-51
2023/06/01 08:53:28;;;;;;;7.03;4.72;;;;;;;;;;5077155;28;20239;-52
2023/06/01 08:55:56;;;;;;;5.68;4.18;;;;;;;;;;5077816;28;20237;-59
2023/06/01 08:58:23;;;;;;;8.23;4.82;;;;;;;;;;5080697;28;20236;-52
2023/06/01 09:00:50;;;;;;;7.95;5.35;;;;;;;;;;5088407;28;20324;-52
2023/06/01 09:03:18;;;;;;;9.85;5.70;;;;;;;;;;5083657;28;20266;-52
2023/06/01 09:05:44;;;;;;;12.18;5.25;;;;;;;;;;5082319;28;20241;-53
2023/06/01 09:08:11;;;;;;;7.30;4.75;;;;;;;;;;5089792;28;20233;-52
2023/06/01 09:10:37;;;;;;;4.47;4.05;;;;;;;;;;5091808;28;20234;-54
2023/06/01 09:13:06;;;;;;;6.82;5.10;;;;;;;;;;5085192;28;20249;-52
2023/06/01 09:15:32;;;;;;;7.35;5.15;;;;;;;;;;5092668;28;20808;-52
2023/06/01 09:18:06;;;;;;;9.23;4.55;;;;;;;;;;5097159;28;20231;-52
2023/06/01 09:20:32;;;;;;;9.57;5.65;;;;;;;;;;5092698;28;20269;-53
2023/06/01 09:22:59;;;;;;;11.50;6.28;;;;;;;;;;5094984;28;20317;-51
2023/06/01 09:25:27;;;;;;;9.70;4.35;;;;;;;;;;5098585;28;20259;-58
2023/06/01 09:27:54;;;;;;;7.88;4.43;;;;;;;;;;5088721;28;20256;-51
2023/06/01 09:30:23;;;;;;;6.65;4.82;;;;;;;;;;5089780;28;20258;-51
2023/06/01 09:32:52;;;;;;;7.18;4.85;;;;;;;;;;5091079;28;20338;-50
2023/06/01 09:35:37;;;;;;;5.35;4.72;;;;;;;;;;5094101;28;20298;-52
2023/06/01 09:38:05;;;;;;;10.82;5.10;;;;;;;;;;5096173;28;20251;-52
2023/06/01 09:40:32;;;;;;;7.25;4.50;;;;;;;;;;5086215;28;20226;-52
2023/06/01 09:42:59;;;;;;;6.80;5.15;;;;;;;;;;5086541;28;20345;-53
2023/06/01 09:45:26;;;;;;;5.68;5.18;;;;;;;;;;5087367;28;20672;-52
2023/06/01 09:47:53;;;;;;;13.48;6.88;;;;;;;;;;5076454;28;20235;-53
2023/06/01 09:50:35;;;;;;;7.70;5.60;;;;;;;;;;5077273;28;20253;-51
2023/06/01 09:53:02;;;;;;;9.23;5.90;;;;;;;;;;5083628;28;20234;-54
2023/06/01 09:55:28;;;;;;;10.73;6.72;;;;;;;;;;5095907;28;20258;-54
2023/06/01 09:58:17;;;;;;;7.50;6.43;;;;;;;;;;5089186;28;20302;-55
2023/06/01 10:00:45;;;;;;;7.28;5.63;;;;;;;;;;5080987;28;20714;-57
2023/06/01 10:03:11;;;;;;;7.53;5.75;;;;;;;;;;5091263;28;20315;-55
2023/06/01 10:05:38;;;;;;;7.30;6.05;;;;;;;;;;5086991;28;20231;-52
2023/06/01 10:08:05;;;;;;;7.55;5.95;;;;;;;;;;5080995;28;20719;-52
2023/06/01 10:10:32;;;;;;;11.75;7.45;;;;;;;;;;5085022;28;20239;-52
2023/06/01 10:12:59;;;;;;;8.90;7.45;;;;;;;;;;5081823;28;20248;-52
2023/06/01 10:15:25;;;;;;;7.88;7.10;;;;;;;;;;5082096;28;20305;-51
2023/06/01 10:17:53;;;;;;;10.65;7.70;;;;;;;;;;5079858;28;20701;-52
2023/06/01 10:20:20;;;;;;;11.02;7.53;;;;;;;;;;5078263;28;20276;-51
2023/06/01 10:22:46;;;;;;;10.63;7.03;;;;;;;;;;5079086;28;20252;-51
2023/06/01 10:25:15;;;;;;;8.75;7.28;;;;;;;;;;5074181;28;20234;-51
2023/06/01 10:27:43;;;;;;;9.43;8.45;;;;;;;;;;5078749;28;20575;-53
2023/06/01 10:30:10;;;;;;;8.98;7.57;;;;;;;;;;5076558;28;20322;-51
2023/06/01 10:32:47;;;;;;;8.55;7.32;;;;;;;;;;5077542;28;20235;-52
2023/06/01 10:35:28;;;;;;;9.52;8.20;;;;;;;;;;5071861;28;20732;-52
2023/06/01 10:38:10;;;;;;;9.00;7.18;;;;;;;;;;5080366;28;20313;-52
2023/06/01 10:40:38;;;;;;;8.57;7.72;;;;;;;;;;5078644;28;20238;-52
2023/06/01 10:43:05;;;;;;;9.70;6.68;;;;;;;;;;5082109;28;20318;-52
2023/06/01 10:45:39;;;;;;;8.15;6.75;;;;;;;;;;5075984;28;20365;-52
2023/06/01 10:48:06;;;;;;;7.93;7.13;;;;;;;;;;5079808;28;20223;-52
2023/06/01 10:50:32;;;;;;;9.82;7.90;;;;;;;;;;5083145;28;20880;-51
2023/06/01 10:53:21;;;;;;;9.48;8.57;;;;;;;;;;5080372;28;20321;-53
2023/06/01 10:56:08;;;;;;;7.90;7.10;;;;;;;;;;5079483;28;20226;-51
2023/06/01 10:58:35;;;;;;;10.25;7.93;;;;;;;;;;5080073;28;20236;-52
2023/06/01 11:01:02;;;;;;;8.32;7.40;;;;;;;;;;5081575;28;20251;-51
2023/06/01 11:03:45;;;;;;;12.45;7.63;;;;;;;;;;5079151;28;20249;-54
2023/06/01 11:06:23;;;;;;;7.60;6.90;;;;;;;;;;5074003;28;20230;-51
2023/06/01 11:08:51;;;;;;;9.38;7.70;;;;;;;;;;5072415;28;20249;-52
2023/06/01 11:11:21;;;;;;;10.48;7.82;;;;;;;;;;5079012;28;20281;-52
2023/06/01 11:14:03;;;;;;;6.75;6.13;;;;;;;;;;5082227;28;20245;-51
2023/06/01 11:16:30;;;;;;;9.52;7.55;;;;;;;;;;5076534;28;20250;-52
2023/06/01 11:18:58;;;;;;;9.05;6.63;;;;;;;;;;5079250;28;20315;-53
2023/06/01 11:21:25;;;;;;;8.05;7.10;;;;;;;;;;5076373;28;20237;-53
2023/06/01 11:23:52;;;;;;;9.13;6.38;;;;;;;;;;5082235;28;20222;-52
2023/06/01 11:26:21;;;;;;;8.07;6.40;;;;;;;;;;5082492;28;20230;-52
2023/06/01 11:28:48;;;;;;;8.70;7.90;;;;;;;;;;5077202;28;20224;-53
2023/06/01 11:31:16;;;;;;;10.27;7.20;;;;;;;;;;5076552;28;20236;-52
2023/06/01 11:33:49;;;;;;;11.90;6.63;;;;;;;;;;5078893;28;20321;-52
2023/06/01 11:36:16;;;;;;;8.07;6.18;;;;;;;;;;5077608;28;20235;-52
2023/06/01 11:38:43;;;;;;;8.73;6.25;;;;;;;;;;5081008;28;20226;-52
2023/06/01 11:41:10;;;;;;;11.70;7.18;;;;;;;;;;5078293;28;20287;-51
2023/06/01 11:43:38;;;;;;;11.90;6.53;;;;;;;;;;5081397;28;20624;-53
2023/06/01 11:46:06;;;;;;;6.82;6.13;;;;;;;;;;5080497;28;20236;-51
2023/06/01 11:48:33;;;;;;;9.93;6.78;;;;;;;;;;5078786;28;20242;-54
2023/06/01 11:51:00;;;;;;;6.00;5.50;;;;;;;;;;5085424;28;20372;-52
2023/06/01 11:53:26;;;;;;;10.27;5.97;;;;;;;;;;5078878;28;20299;-53
2023/06/01 11:55:54;;;;;;;8.50;5.88;;;;;;;;;;5090324;28;20263;-52
2023/06/01 11:58:24;;;;;;;8.30;5.40;;;;;;;;;;5092962;28;20291;-53
2023/06/01 12:00:52;;;;;;;6.18;5.05;;;;;;;;;;5078292;28;20453;-51
2023/06/01 12:03:18;;;;;;;6.05;5.03;;;;;;;;;;5076705;28;20325;-53
2023/06/01 12:05:46;;;;;;;8.82;5.28;;;;;;;;;;5077331;28;20707;-51
2023/06/01 12:08:15;;;;;;;5.65;5.20;;;;;;;;;;5081101;28;20246;-52
2023/06/01 12:10:43;;;;;;;10.73;5.43;;;;;;;;;;5073663;28;20229;-53
2023/06/01 12:13:10;;;;;;;7.18;5.30;;;;;;;;;;5078905;28;20919;-53
2023/06/01 12:15:37;;;;;;;5.95;5.13;;;;;;;;;;5079987;28;20708;-51
2023/06/01 12:18:05;;;;;;;6.65;5.03;;;;;;;;;;5072309;28;20231;-51
2023/06/01 12:20:33;;;;;;;12.75;5.15;;;;;;;;;;5073298;28;20235;-52
2023/06/01 12:23:03;;;;;;;8.38;4.70;;;;;;;;;;5079251;28;20237;-52
2023/06/01 12:25:30;;;;;;;10.27;5.10;;;;;;;;;;5079126;28;20306;-53
2023/06/01 12:28:00;;;;;;;5.85;5.25;;;;;;;;;;5081164;28;20284;-51
2023/06/01 12:30:27;;;;;;;6.78;4.97;;;;;;;;;;5083682;28;20313;-53
2023/06/01 12:32:53;;;;;;;6.50;4.88;;;;;;;;;;5087926;28;20226;-51
2023/06/01 12:35:23;;;;;;;5.15;4.50;;;;;;;;;;5085965;28;20246;-52
2023/06/01 12:38:03;;;;;;;6.18;4.47;;;;;;;;;;5088296;28;20704;-51
2023/06/01 12:40:29;;;;;;;10.80;5.32;;;;;;;;;;5077631;28;20313;-52
2023/06/01 12:42:55;;;;;;;6.32;5.20;;;;;;;;;;5081759;28;20313;-51
2023/06/01 12:45:22;;;;;;;5.45;4.03;;;;;;;;;;5082260;28;20227;-50
2023/06/01 12:47:48;;;;;;;7.53;4.97;;;;;;;;;;5083668;28;20227;-51
2023/06/01 12:50:14;;;;;;;5.88;4.70;;;;;;;;;;5079973;28;20254;-52
2023/06/01 12:52:44;;;;;;;6.45;4.57;;;;;;;;;;5077423;28;20612;-52
2023/06/01 12:55:10;;;;;;;5.80;4.40;;;;;;;;;;5084266;28;20234;-53
2023/06/01 12:57:37;;;;;;;5.55;5.03;;;;;;;;;;5083148;28;20318;-52
2023/06/01 13:00:05;;;;;;;3.75;3.33;;;;;;;;;;5085821;28;20234;-52
2023/06/01 13:02:32;;;;;;;4.30;3.88;;;;;;;;;;5080549;28;20242;-51
2023/06/01 13:04:59;;;;;;;4.88;4.10;;;;;;;;;;5082585;28;20659;-52
2023/06/01 13:07:25;;;;;;;6.85;4.55;;;;;;;;;;5085411;28;20229;-51
2023/06/01 13:09:53;;;;;;;7.82;4.60;;;;;;;;;;5085891;28;20232;-52
2023/06/01 13:12:20;;;;;;;7.50;4.45;;;;;;;;;;5083692;28;20233;-51
2023/06/01 13:14:46;;;;;;;5.20;4.28;;;;;;;;;;5086158;28;20980;-51
2023/06/01 13:17:13;;;;;;;5.50;4.85;;;;;;;;;;5085091;28;20246;-51
2023/06/01 13:19:39;;;;;;;8.27;4.50;;;;;;;;;;5080929;28;20350;-52
2023/06/01 13:22:06;;;;;;;6.57;4.25;;;;;;;;;;5079674;28;20226;-51
2023/06/01 13:24:32;;;;;;;7.85;4.68;;;;;;;;;;5085555;28;20253;-54
2023/06/01 13:27:00;;;;;;;5.43;4.55;;;;;;;;;;5081559;28;20354;-51
2023/06/01 13:29:26;;;;;;;7.88;5.00;;;;;;;;;;5080444;28;20313;-52
2023/06/01 13:31:53;;;;;;;8.00;4.00;;;;;;;;;;5079913;28;20305;-50
2023/06/01 13:34:20;;;;;;;6.25;4.05;;;;;;;;;;5081354;28;20291;-51
2023/06/01 13:36:47;;;;;;;5.95;4.40;;;;;;;;;;5076278;28;20242;-50
2023/06/01 13:39:14;;;;;;;6.55;4.68;;;;;;;;;;5075010;28;20234;-52
2023/06/01 13:41:41;;;;;;;5.93;4.20;;;;;;;;;;5075066;28;20321;-51
2023/06/01 13:44:09;;;;;;;6.35;4.68;;;;;;;;;;5086464;28;20229;-52
2023/06/01 13:46:35;;;;;;;8.13;4.72;;;;;;;;;;5083460;28;20238;-52
2023/06/01 13:49:01;;;;;;;5.38;4.88;;;;;;;;;;5080592;28;20322;-52
2023/06/01 13:51:29;;;;;;;9.75;5.55;;;;;;;;;;5083268;28;21049;-53
2023/06/01 13:53:55;;;;;;;5.75;4.38;;;;;;;;;;5083164;28;20226;-51
2023/06/01 13:56:23;;;;;;;5.95;4.50;;;;;;;;;;5083146;28;20265;-51
2023/06/01 13:58:50;;;;;;;5.22;4.32;;;;;;;;;;5078934;28;20230;-52
2023/06/01 14:01:17;;;;;;;5.43;4.13;;;;;;;;;;5084428;28;20671;-50
2023/06/01 14:03:44;;;;;;;14.23;5.53;;;;;;;;;;5086162;28;20234;-54
2023/06/01 14:06:10;;;;;;;9.10;5.35;;;;;;;;;;5088225;28;20313;-55
2023/06/01 14:08:37;;;;;;;8.20;4.32;;;;;;;;;;5084652;28;20318;-52
2023/06/01 14:11:03;;;;;;;5.45;4.22;;;;;;;;;;5085463;28;20235;-52
2023/06/01 14:13:29;;;;;;;5.38;4.82;;;;;;;;;;5083634;28;20232;-53
2023/06/01 14:15:56;;;;;;;5.78;3.95;;;;;;;;;;5089816;28;20715;-53
2023/06/01 14:18:24;;;;;;;7.70;4.53;;;;;;;;;;5085537;28;20236;-53
2023/06/01 14:20:51;;;;;;;6.88;4.38;;;;;;;;;;5078943;28;20226;-51
2023/06/01 14:23:17;;;;;;;4.55;4.15;;;;;;;;;;5070460;28;20334;-53
2023/06/01 14:25:44;;;;;;;8.75;4.43;;;;;;;;;;5094835;28;20261;-52
2023/06/01 14:28:11;;;;;;;7.68;5.00;;;;;;;;;;5101191;28;20242;-52
2023/06/01 14:30:37;;;;;;;8.63;5.75;;;;;;;;;;5102442;28;20467;-52
2023/06/01 14:33:04;;;;;;;6.30;5.05;;;;;;;;;;5097382;28;20294;-52
2023/06/01 14:35:33;;;;;;;7.60;4.47;;;;;;;;;;5097183;28;20705;-50
2023/06/01 14:37:59;;;;;;;6.50;4.55;;;;;;;;;;5083997;28;20238;-51
2023/06/01 14:40:26;;;;;;;10.07;4.93;;;;;;;;;;5083540;28;20272;-50
2023/06/01 14:42:52;;;;;;;5.40;4.28;;;;;;;;;;5074355;28;20230;-52
2023/06/01 14:45:21;;;;;;;5.30;3.67;;;;;;;;;;5076883;28;20714;-52